Royersford, Pennsylvania
Current Conditions -  °F | °C
As of 5:54 PM on Friday 28 Nov 2014 (Local Time) from KPTW Reporting Station
Clear Clear  
Wind Chill: 26°   Ceiling: Unl
Heat Index: 26°   Visibility: 10mi
Dew Point: 16°   Wind: 3mph
Humidity: 66%   Direction: 290°WNW
Pressure: 30.26"   Gusts: NA
Location:  40.18°N, 75.54°W
Report Text: KPTW 282254Z AUTO 29003KT 10SM CLR M03/M09 A3026 RMK AO2 SLP247 T10331089
Loading
Personal Weather Stations






























Interactive Weather Map New forecast layout! Learn more

10-Day Weather Forecast

Advertisements
Track Severe Weather on mobile